createdAt,value
2023-03-06T00:00:43.989Z,10.70
2023-03-06T00:03:11.147Z,8.57
2023-03-06T00:05:38.333Z,9.20
2023-03-06T00:08:06.160Z,8.73
2023-03-06T00:10:36.524Z,11.27
2023-03-06T00:13:08.893Z,9.63
2023-03-06T00:15:36.076Z,9.47
2023-03-06T00:18:06.678Z,9.10
2023-03-06T00:20:34.186Z,11.33
2023-03-06T00:23:04.239Z,12.20
2023-03-06T00:25:38.825Z,8.90
2023-03-06T00:28:06.704Z,8.40
2023-03-06T00:30:34.877Z,10.53
2023-03-06T00:33:02.639Z,11.40
2023-03-06T00:35:31.071Z,11.00
2023-03-06T00:37:59.886Z,9.87
2023-03-06T00:40:27.472Z,11.40
2023-03-06T00:42:54.770Z,8.90
2023-03-06T00:45:22.011Z,10.43
2023-03-06T00:47:49.201Z,9.40
2023-03-06T00:50:16.596Z,10.57
2023-03-06T00:52:43.652Z,10.60
2023-03-06T00:55:11.131Z,9.13
2023-03-06T00:57:38.419Z,9.70
2023-03-06T01:00:06.590Z,10.30
2023-03-06T01:02:34.046Z,11.73
2023-03-06T01:05:01.364Z,9.73
2023-03-06T01:07:28.741Z,11.50
2023-03-06T01:09:58.104Z,12.88
2023-03-06T01:12:25.437Z,9.50
2023-03-06T01:14:52.524Z,10.03
2023-03-06T01:17:19.639Z,12.60
2023-03-06T01:19:46.856Z,11.93
2023-03-06T01:22:14.188Z,11.83
2023-03-06T01:24:41.250Z,12.97
2023-03-06T01:27:08.685Z,12.00
2023-03-06T01:29:35.966Z,9.83
2023-03-06T01:32:03.247Z,9.37
2023-03-06T01:34:30.514Z,13.03
2023-03-06T01:36:57.603Z,11.10
2023-03-06T01:39:25.116Z,10.27
2023-03-06T01:41:52.678Z,14.00
2023-03-06T01:44:19.776Z,11.77
2023-03-06T01:46:47.415Z,13.53
2023-03-06T01:49:50.320Z,11.53
2023-03-06T01:52:19.964Z,11.90
2023-03-06T01:54:51.885Z,10.98
2023-03-06T01:57:28.828Z,11.23
2023-03-06T02:00:17.518Z,12.60
2023-03-06T02:02:48.038Z,12.23
2023-03-06T02:07:42.470Z,11.17
2023-03-06T02:10:13.091Z,14.70
2023-03-06T02:12:40.745Z,13.87
2023-03-06T02:15:08.089Z,11.97
2023-03-06T02:17:35.615Z,10.30
2023-03-06T02:20:06.915Z,12.47
2023-03-06T02:22:38.244Z,12.57
2023-03-06T02:25:12.379Z,11.40
2023-03-06T02:27:39.613Z,14.27
2023-03-06T02:30:08.345Z,12.03
2023-03-06T02:32:37.810Z,12.43
2023-03-06T02:35:05.422Z,13.17
2023-03-06T02:37:32.623Z,12.03
2023-03-06T02:40:08.397Z,11.57
2023-03-06T02:42:35.667Z,12.67
2023-03-06T02:45:03.022Z,11.27
2023-03-06T02:47:30.270Z,14.47
2023-03-06T02:49:57.429Z,13.03
2023-03-06T02:52:24.479Z,12.83
2023-03-06T02:54:51.781Z,11.63
2023-03-06T02:57:19.041Z,13.37
2023-03-06T02:59:46.167Z,13.10
2023-03-06T03:02:13.585Z,12.93
2023-03-06T03:04:40.926Z,11.23
2023-03-06T03:07:08.541Z,13.87
2023-03-06T03:09:37.371Z,12.97
2023-03-06T03:12:06.884Z,12.93
2023-03-06T03:14:34.283Z,13.27
2023-03-06T03:17:02.777Z,12.10
2023-03-06T03:19:30.088Z,10.33
2023-03-06T03:21:57.201Z,12.37
2023-03-06T03:24:24.763Z,11.93
2023-03-06T03:26:52.830Z,10.97
2023-03-06T03:29:22.262Z,15.27
2023-03-06T03:31:49.626Z,10.87
2023-03-06T03:34:17.088Z,13.50
2023-03-06T03:36:44.086Z,13.80
2023-03-06T03:39:12.871Z,16.80
2023-03-06T03:41:41.792Z,11.70
2023-03-06T03:44:10.441Z,15.73
2023-03-06T03:46:38.201Z,14.77
2023-03-06T03:49:09.932Z,15.57
2023-03-06T03:51:37.940Z,14.83
2023-03-06T03:54:06.985Z,14.70
2023-03-06T03:56:40.910Z,11.20
2023-03-06T03:59:14.216Z,13.30
2023-03-06T04:01:49.781Z,13.13
2023-03-06T04:04:17.123Z,14.77
2023-03-06T04:06:45.706Z,13.17
2023-03-06T04:09:14.404Z,14.90
2023-03-06T04:11:42.382Z,15.07
2023-03-06T04:14:09.925Z,14.77
2023-03-06T04:16:37.735Z,13.83
2023-03-06T04:19:06.534Z,13.27
2023-03-06T04:21:34.133Z,12.13
2023-03-06T04:24:01.698Z,13.30
2023-03-06T04:26:28.885Z,17.93
2023-03-06T04:28:56.271Z,14.37
2023-03-06T04:31:24.016Z,13.50
2023-03-06T04:33:52.096Z,12.87
2023-03-06T04:36:25.612Z,12.43
2023-03-06T04:38:54.450Z,14.93
2023-03-06T04:41:22.067Z,12.13
2023-03-06T04:43:49.574Z,12.37
2023-03-06T04:46:16.806Z,11.63
2023-03-06T04:48:44.151Z,12.17
2023-03-06T04:51:12.696Z,11.70
2023-03-06T04:53:40.116Z,11.80
2023-03-06T04:56:07.451Z,13.07
2023-03-06T04:58:34.699Z,16.03
2023-03-06T05:01:02.149Z,12.07
2023-03-06T05:03:29.222Z,15.67
2023-03-06T05:05:56.392Z,13.13
2023-03-06T05:08:24.121Z,12.73
2023-03-06T05:10:59.144Z,12.50
2023-03-06T05:13:26.746Z,13.13
2023-03-06T05:15:53.966Z,12.00
2023-03-06T05:18:21.090Z,15.23
2023-03-06T05:20:48.597Z,17.07
2023-03-06T05:23:15.613Z,15.20
2023-03-06T05:25:42.805Z,13.40
2023-03-06T05:28:09.967Z,11.43
2023-03-06T05:30:37.385Z,12.80
2023-03-06T05:33:04.671Z,13.23
2023-03-06T05:35:32.510Z,14.43
2023-03-06T05:37:59.582Z,14.90
2023-03-06T05:40:26.836Z,14.60
2023-03-06T05:42:53.925Z,12.97
2023-03-06T05:45:20.954Z,15.20
2023-03-06T05:47:48.227Z,12.03
2023-03-06T05:50:15.394Z,12.77
2023-03-06T05:52:42.557Z,12.37
2023-03-06T05:55:11.841Z,10.57
2023-03-06T05:57:39.036Z,12.30
2023-03-06T06:00:07.144Z,12.40
2023-03-06T06:02:39.924Z,12.23
2023-03-06T06:05:08.021Z,10.30
2023-03-06T06:07:35.135Z,11.23
2023-03-06T06:10:03.816Z,11.07
2023-03-06T06:12:31.147Z,11.03
2023-03-06T06:14:58.307Z,11.67
2023-03-06T06:17:30.926Z,11.30
2023-03-06T06:19:58.014Z,12.57
2023-03-06T06:22:25.141Z,9.00
2023-03-06T06:24:52.579Z,11.47
2023-03-06T06:27:19.564Z,11.27
2023-03-06T06:29:46.599Z,8.03
2023-03-06T06:32:13.798Z,13.27
2023-03-06T06:34:40.967Z,10.67
2023-03-06T06:37:09.675Z,12.37
2023-03-06T06:39:37.143Z,10.63
2023-03-06T06:42:26.622Z,10.83
2023-03-06T06:44:51.723Z,10.13
2023-03-06T06:47:23.120Z,10.10
2023-03-06T06:49:53.005Z,11.73
2023-03-06T06:52:20.140Z,12.20
2023-03-06T06:54:47.235Z,9.67
2023-03-06T06:57:14.899Z,10.67
2023-03-06T06:59:42.042Z,12.80
2023-03-06T07:02:11.973Z,11.17
2023-03-06T07:04:49.098Z,11.57
2023-03-06T07:07:25.432Z,10.60
2023-03-06T07:09:53.380Z,9.07
2023-03-06T07:12:20.486Z,11.50
2023-03-06T07:14:48.550Z,9.20
2023-03-06T07:17:15.935Z,9.63
2023-03-06T07:19:43.035Z,10.43
2023-03-06T07:22:10.180Z,8.03
2023-03-06T07:24:37.556Z,7.97
2023-03-06T07:27:04.645Z,10.63
2023-03-06T07:29:33.074Z,8.13
2023-03-06T07:32:00.470Z,8.80
2023-03-06T07:34:27.591Z,9.47
2023-03-06T07:36:54.667Z,8.30
2023-03-06T07:39:21.924Z,9.57
2023-03-06T07:41:49.096Z,8.10
2023-03-06T07:44:16.178Z,8.00
2023-03-06T07:46:43.560Z,9.27
2023-03-06T07:49:10.694Z,9.90
2023-03-06T07:51:37.696Z,8.93
2023-03-06T07:54:05.324Z,8.10
2023-03-06T07:56:35.045Z,9.77
2023-03-06T07:59:02.476Z,8.15
2023-03-06T08:01:29.704Z,7.37
2023-03-06T08:03:57.015Z,9.33
2023-03-06T08:06:25.950Z,9.43
2023-03-06T08:08:54.174Z,9.67
2023-03-06T08:11:22.762Z,8.30
2023-03-06T08:13:49.904Z,8.80
2023-03-06T08:16:17.804Z,8.50
2023-03-06T08:18:46.338Z,9.20
2023-03-06T08:21:18.546Z,32.53
2023-03-06T08:23:45.900Z,9.93
2023-03-06T08:26:21.240Z,9.30
2023-03-06T08:28:48.490Z,7.73
2023-03-06T08:31:25.450Z,8.73
2023-03-06T08:33:53.258Z,9.47
2023-03-06T08:36:20.595Z,12.00
2023-03-06T08:38:47.792Z,9.13
2023-03-06T08:41:14.891Z,8.47
2023-03-06T08:43:41.932Z,7.47
2023-03-06T08:46:10.512Z,7.47
2023-03-06T08:48:37.674Z,8.10
2023-03-06T08:51:04.935Z,8.37
2023-03-06T08:53:42.710Z,6.97
2023-03-06T08:56:17.447Z,7.70
2023-03-06T08:58:44.698Z,8.57
2023-03-06T09:01:25.543Z,7.87
2023-03-06T09:03:54.569Z,10.80
2023-03-06T09:06:22.035Z,8.87
2023-03-06T09:08:51.531Z,7.13
2023-03-06T09:11:19.388Z,7.50
2023-03-06T09:13:46.541Z,7.93
2023-03-06T09:16:13.682Z,7.63
2023-03-06T09:18:40.904Z,8.07
2023-03-06T09:21:08.397Z,7.77
2023-03-06T09:23:36.017Z,10.40
2023-03-06T09:26:03.411Z,8.50
2023-03-06T09:28:30.651Z,7.20
2023-03-06T09:30:57.969Z,7.90
2023-03-06T09:33:25.844Z,8.73
2023-03-06T09:35:54.533Z,9.90
2023-03-06T09:38:23.050Z,9.47
2023-03-06T09:40:58.655Z,10.47
2023-03-06T09:43:37.032Z,8.73
2023-03-06T09:46:14.198Z,10.10
2023-03-06T09:49:17.294Z,7.67
2023-03-06T09:52:18.441Z,9.27
2023-03-06T09:54:58.596Z,10.37
2023-03-06T09:57:34.244Z,10.05
2023-03-06T10:00:14.706Z,8.80
2023-03-06T10:05:17.860Z,8.80
2023-03-06T10:07:58.783Z,11.43
2023-03-06T10:10:39.703Z,8.40
2023-03-06T10:13:19.492Z,13.73
2023-03-06T10:15:49.483Z,11.60
2023-03-06T10:18:17.073Z,9.30
2023-03-06T10:20:53.463Z,15.05
2023-03-06T10:23:41.633Z,9.43
2023-03-06T10:26:23.390Z,12.02
2023-03-06T10:28:57.270Z,9.43
2023-03-06T10:31:26.171Z,11.32
2023-03-06T10:34:05.699Z,8.65
2023-03-06T10:36:32.831Z,9.82
2023-03-06T10:39:00.221Z,9.50
2023-03-06T10:41:28.447Z,9.98
2023-03-06T10:44:04.822Z,10.65
2023-03-06T10:46:34.384Z,14.35
2023-03-06T10:49:05.800Z,11.15
2023-03-06T10:51:34.204Z,10.55
2023-03-06T10:54:18.370Z,11.50
2023-03-06T10:56:46.252Z,10.13
2023-03-06T10:59:17.830Z,10.10
2023-03-06T11:01:49.807Z,13.07
2023-03-06T11:04:35.991Z,10.63
2023-03-06T11:07:16.837Z,10.20
2023-03-06T11:09:59.460Z,9.98
2023-03-06T11:12:32.481Z,10.75
2023-03-06T11:15:14.887Z,10.07
2023-03-06T11:18:05.811Z,10.00
2023-03-06T11:20:51.583Z,11.98
2023-03-06T11:23:31.914Z,10.77
2023-03-06T11:26:09.653Z,8.88
2023-03-06T11:28:44.507Z,7.05
2023-03-06T11:31:21.119Z,8.13
2023-03-06T11:34:07.409Z,8.35
2023-03-06T11:36:38.924Z,8.23
2023-03-06T11:39:21.880Z,7.90
2023-03-06T11:41:52.496Z,7.30
2023-03-06T11:44:57.962Z,8.55
2023-03-06T11:47:42.441Z,10.23
2023-03-06T11:50:42.378Z,7.40
2023-03-06T11:53:19.462Z,6.72
2023-03-06T11:55:46.634Z,6.03
2023-03-06T11:58:39.068Z,8.52
2023-03-06T12:01:14.131Z,8.13
2023-03-06T12:03:59.946Z,10.75
2023-03-06T12:06:37.371Z,7.55
2023-03-06T12:09:14.072Z,6.60
2023-03-06T12:12:02.443Z,7.20
2023-03-06T12:14:44.747Z,5.82
2023-03-06T12:17:16.420Z,10.45
2023-03-06T12:19:50.605Z,7.57
2023-03-06T12:22:57.943Z,7.28
2023-03-06T12:25:45.163Z,7.82
2023-03-06T12:28:28.443Z,5.53
2023-03-06T12:31:26.719Z,6.15
2023-03-06T12:34:18.985Z,7.63
2023-03-06T12:37:17.087Z,8.35
2023-03-06T12:39:47.429Z,9.40
2023-03-06T12:45:23.276Z,7.07
2023-03-06T12:47:51.399Z,6.50
2023-03-06T12:50:21.612Z,9.60
2023-03-06T12:52:49.220Z,6.03
2023-03-06T12:55:19.380Z,5.55
2023-03-06T12:57:49.040Z,5.50
2023-03-06T13:00:34.786Z,5.28
2023-03-06T13:03:10.682Z,7.45
2023-03-06T13:05:53.231Z,5.00
2023-03-06T13:09:00.670Z,4.65
2023-03-06T13:11:46.254Z,6.57
2023-03-06T13:14:21.650Z,6.72
2023-03-06T13:16:48.849Z,6.80
2023-03-06T13:19:20.512Z,5.20
2023-03-06T13:21:56.894Z,6.45
2023-03-06T13:24:27.802Z,4.80
2023-03-06T13:27:02.964Z,6.88
2023-03-06T13:29:36.147Z,8.50
2023-03-06T13:32:03.640Z,10.35
2023-03-06T13:34:40.875Z,5.70
2023-03-06T13:37:17.252Z,5.32
2023-03-06T13:40:13.926Z,5.82
2023-03-06T13:42:44.097Z,4.88
2023-03-06T13:45:24.134Z,4.30
2023-03-06T13:48:21.155Z,5.18
2023-03-06T13:50:47.731Z,5.93
2023-03-06T13:54:02.413Z,5.03
2023-03-06T13:56:47.542Z,6.30
2023-03-06T13:59:14.768Z,8.45
2023-03-06T14:02:10.100Z,6.10
2023-03-06T14:04:59.062Z,11.77
2023-03-06T14:07:33.654Z,5.68
2023-03-06T14:10:22.480Z,6.25
2023-03-06T14:12:51.631Z,7.50
2023-03-06T14:15:23.538Z,4.70
2023-03-06T14:17:55.086Z,4.32
2023-03-06T14:20:50.952Z,4.95
2023-03-06T14:23:28.911Z,11.02
2023-03-06T14:26:19.819Z,4.07
2023-03-06T14:29:00.682Z,3.92
2023-03-06T14:31:37.204Z,5.18
2023-03-06T14:34:08.418Z,4.13
2023-03-06T14:36:49.334Z,4.70
2023-03-06T14:39:25.329Z,4.22
2023-03-06T14:41:52.489Z,4.18
2023-03-06T14:44:19.796Z,4.35
2023-03-06T14:46:51.010Z,4.78
2023-03-06T14:49:19.773Z,4.10
2023-03-06T14:51:52.168Z,5.57
2023-03-06T14:54:30.348Z,6.10
2023-03-06T14:57:13.852Z,3.80
2023-03-06T14:59:52.289Z,3.97
2023-03-06T15:02:24.462Z,6.32
2023-03-06T15:05:02.394Z,4.82
2023-03-06T15:07:30.738Z,4.30
2023-03-06T15:10:01.029Z,4.20
2023-03-06T15:12:29.821Z,5.75
2023-03-06T15:14:58.612Z,5.68
2023-03-06T15:17:42.278Z,6.05
2023-03-06T15:20:41.845Z,4.45
2023-03-06T15:23:26.158Z,5.07
2023-03-06T15:25:58.125Z,6.13
2023-03-06T15:28:35.874Z,5.00
2023-03-06T15:31:05.690Z,4.78
2023-03-06T15:33:32.967Z,7.85
2023-03-06T15:36:02.161Z,5.00
2023-03-06T15:38:34.396Z,5.75
2023-03-06T15:41:02.147Z,6.47
2023-03-06T15:43:32.119Z,7.47
2023-03-06T15:46:00.364Z,5.43
2023-03-06T15:48:27.737Z,6.57
2023-03-06T15:50:54.886Z,5.25
2023-03-06T15:53:22.142Z,8.52
2023-03-06T15:55:50.379Z,7.07
2023-03-06T15:58:20.481Z,6.45
2023-03-06T16:00:47.921Z,6.30
2023-03-06T16:03:15.146Z,6.45
2023-03-06T16:05:42.212Z,5.65
2023-03-06T16:08:11.141Z,5.30
2023-03-06T16:10:39.296Z,4.18
2023-03-06T16:13:09.733Z,5.32
2023-03-06T16:15:41.210Z,3.60
2023-03-06T16:18:10.584Z,7.18
2023-03-06T16:20:41.870Z,4.03
2023-03-06T16:23:10.768Z,5.65
2023-03-06T16:25:41.922Z,4.45
2023-03-06T16:28:17.536Z,3.55
2023-03-06T16:30:45.184Z,3.80
2023-03-06T16:33:12.797Z,4.30
2023-03-06T16:35:41.602Z,3.15
2023-03-06T16:38:10.248Z,3.95
2023-03-06T16:40:41.122Z,3.40
2023-03-06T16:43:11.039Z,3.67
2023-03-06T16:45:39.881Z,4.97
2023-03-06T16:48:16.260Z,4.25
2023-03-06T16:50:45.932Z,4.13
2023-03-06T16:53:16.049Z,3.50
2023-03-06T16:55:43.483Z,3.25
2023-03-06T16:58:10.876Z,2.72
2023-03-06T17:00:38.031Z,4.67
2023-03-06T17:03:06.087Z,3.67
2023-03-06T17:05:34.305Z,2.92
2023-03-06T17:08:03.867Z,4.10
2023-03-06T17:10:33.510Z,4.93
2023-03-06T17:13:02.930Z,3.88
2023-03-06T17:15:30.250Z,4.93
2023-03-06T17:17:59.881Z,4.10
2023-03-06T17:20:27.142Z,4.18
2023-03-06T17:22:54.364Z,4.97
2023-03-06T17:25:21.559Z,4.83
2023-03-06T17:28:07.822Z,4.03
2023-03-06T17:30:37.472Z,3.77
2023-03-06T17:33:04.656Z,4.32
2023-03-06T17:35:33.908Z,4.60
2023-03-06T17:38:01.311Z,3.73
2023-03-06T17:40:28.815Z,3.10
2023-03-06T17:42:56.126Z,3.53
2023-03-06T17:45:23.373Z,3.70
2023-03-06T17:47:53.538Z,5.63
2023-03-06T17:50:21.253Z,5.10
2023-03-06T17:52:48.412Z,3.50
2023-03-06T17:55:15.713Z,4.23
2023-03-06T17:57:43.030Z,4.13
2023-03-06T18:00:11.301Z,3.63
2023-03-06T18:02:45.144Z,3.60
2023-03-06T18:05:12.495Z,3.90
2023-03-06T18:07:39.639Z,4.27
2023-03-06T18:10:09.750Z,3.87
2023-03-06T18:12:42.749Z,4.10
2023-03-06T18:15:10.199Z,5.60
2023-03-06T18:17:38.634Z,3.87
2023-03-06T18:20:15.330Z,4.30
2023-03-06T18:22:42.571Z,3.70
2023-03-06T18:25:10.056Z,4.23
2023-03-06T18:27:40.240Z,4.30
2023-03-06T18:30:08.122Z,3.92
2023-03-06T18:32:37.594Z,3.72
2023-03-06T18:35:05.543Z,4.30
2023-03-06T18:37:32.707Z,3.57
2023-03-06T18:39:59.936Z,4.33
2023-03-06T18:42:27.237Z,4.00
2023-03-06T18:44:57.473Z,5.03
2023-03-06T18:47:24.623Z,6.53
2023-03-06T18:49:52.167Z,4.53
2023-03-06T18:52:19.598Z,4.63
2023-03-06T18:54:49.963Z,4.53
2023-03-06T18:57:17.454Z,6.10
2023-03-06T18:59:45.626Z,5.03
2023-03-06T19:02:12.947Z,5.00
2023-03-06T19:04:40.305Z,4.93
2023-03-06T19:07:07.702Z,4.67
2023-03-06T19:09:35.049Z,4.77
2023-03-06T19:12:05.974Z,4.97
2023-03-06T19:14:36.895Z,4.53
2023-03-06T19:17:04.005Z,4.17
2023-03-06T19:19:31.613Z,4.70
2023-03-06T19:21:59.133Z,3.97
2023-03-06T19:24:26.686Z,5.37
2023-03-06T19:26:54.218Z,5.37
2023-03-06T19:29:21.433Z,5.90
2023-03-06T19:31:48.972Z,4.57
2023-03-06T19:34:16.293Z,3.53
2023-03-06T19:36:43.692Z,6.83
2023-03-06T19:39:11.211Z,4.50
2023-03-06T19:41:38.674Z,3.03
2023-03-06T19:44:06.184Z,3.70
2023-03-06T19:46:33.534Z,3.40
2023-03-06T19:49:02.069Z,3.17
2023-03-06T19:51:29.384Z,3.47
2023-03-06T19:53:57.212Z,2.53
2023-03-06T19:56:26.441Z,2.73
2023-03-06T19:58:53.797Z,4.43
2023-03-06T20:01:21.744Z,3.50
2023-03-06T20:03:50.808Z,3.30
2023-03-06T20:06:19.023Z,2.93
2023-03-06T20:08:46.434Z,3.93
2023-03-06T20:11:21.014Z,2.67
2023-03-06T20:13:48.340Z,4.70
2023-03-06T20:16:18.747Z,2.40
2023-03-06T20:21:13.405Z,3.70
2023-03-06T20:23:41.140Z,3.10
2023-03-06T20:26:10.008Z,3.57
2023-03-06T20:28:41.241Z,6.13
2023-03-06T20:31:18.563Z,5.67
2023-03-06T20:33:47.033Z,5.17
2023-03-06T20:36:19.445Z,6.37
2023-03-06T20:38:47.164Z,4.80
2023-03-06T20:41:22.714Z,5.17
2023-03-06T20:43:50.081Z,3.63
2023-03-06T20:46:17.329Z,5.70
2023-03-06T20:48:49.216Z,5.07
2023-03-06T20:51:20.922Z,5.50
2023-03-06T20:53:49.220Z,7.07
2023-03-06T20:56:17.796Z,5.83
2023-03-06T20:58:45.032Z,5.90
2023-03-06T21:01:25.891Z,6.13
2023-03-06T21:07:11.761Z,5.77
2023-03-06T21:09:39.715Z,3.83
2023-03-06T21:12:07.096Z,5.30
2023-03-06T21:14:34.477Z,9.57
2023-03-06T21:17:01.633Z,5.00
2023-03-06T21:19:28.813Z,4.93
2023-03-06T21:21:55.998Z,4.80
2023-03-06T21:24:23.076Z,4.63
2023-03-06T21:26:51.346Z,4.87
2023-03-06T21:29:18.721Z,4.67
2023-03-06T21:31:45.937Z,4.37
2023-03-06T21:34:13.306Z,5.03
2023-03-06T21:36:40.693Z,3.53
2023-03-06T21:39:08.022Z,5.93
2023-03-06T21:41:38.417Z,6.47
2023-03-06T21:46:35.690Z,3.63
2023-03-06T21:49:04.325Z,5.60
2023-03-06T21:51:31.667Z,6.43
2023-03-06T21:53:59.175Z,4.30
2023-03-06T21:56:28.503Z,4.60
2023-03-06T21:58:56.543Z,4.97
2023-03-06T22:01:26.176Z,4.70
2023-03-06T22:03:53.544Z,4.30
2023-03-06T22:06:22.543Z,4.40
2023-03-06T22:08:49.653Z,4.00
2023-03-06T22:11:19.099Z,5.00
2023-03-06T22:13:49.835Z,5.30
2023-03-06T22:16:17.262Z,4.03
2023-03-06T22:18:45.693Z,5.20
2023-03-06T22:21:13.911Z,4.73
2023-03-06T22:23:41.032Z,3.70
2023-03-06T22:26:10.028Z,3.80
2023-03-06T22:28:37.656Z,4.83
2023-03-06T22:31:06.857Z,4.83
2023-03-06T22:33:34.043Z,4.77
2023-03-06T22:36:07.528Z,4.80
2023-03-06T22:38:39.416Z,4.83
2023-03-06T22:41:07.135Z,3.87
2023-03-06T22:43:43.218Z,4.37
2023-03-06T22:46:15.069Z,5.30
2023-03-06T22:48:42.519Z,6.50
2023-03-06T22:51:13.352Z,5.40
2023-03-06T22:53:40.708Z,4.07
2023-03-06T22:56:10.937Z,4.43
2023-03-06T22:58:38.353Z,5.00
2023-03-06T23:01:10.448Z,5.40
2023-03-06T23:03:38.354Z,3.67
2023-03-06T23:06:14.658Z,4.40
2023-03-06T23:08:41.863Z,3.53
2023-03-06T23:11:13.855Z,3.60
2023-03-06T23:16:45.323Z,4.37
2023-03-06T23:19:33.852Z,4.70
2023-03-06T23:22:19.849Z,3.60
2023-03-06T23:25:06.697Z,3.67
2023-03-06T23:27:36.122Z,3.70
2023-03-06T23:30:05.056Z,3.50
2023-03-06T23:32:33.820Z,3.57
2023-03-06T23:35:01.050Z,4.17
2023-03-06T23:37:28.158Z,8.83
2023-03-06T23:39:55.644Z,3.60
2023-03-06T23:42:23.329Z,2.93
2023-03-06T23:44:50.582Z,4.83
2023-03-06T23:47:20.190Z,3.70
2023-03-06T23:49:47.376Z,3.80
2023-03-06T23:52:14.585Z,4.37
2023-03-06T23:54:42.046Z,4.47
2023-03-06T23:57:10.085Z,3.00
2023-03-06T23:59:41.457Z,2.90
